Time;durP1;ratioP1;P1;durP2;ratioP2;P2;SDS_P1;SDS_P2;PMS_P1;PMS_P2;Temp;Humidity;BMP_temperature;BMP_pressure;BME280_temperature;BME280_humidity;BME280_pressure;Samples;Min_cycle;Max_cycle;Signal;HPM_P1;HPM_P2
2022/12/26 00:00:59;;;;;;;2.40;1.73;;;;;;;5.12;82.04;93102.75;2071150;69;20549;-70
2022/12/26 00:03:25;;;;;;;5.23;1.90;;;;;;;5.02;81.95;93108.94;2067961;69;20147;-71
2022/12/26 00:05:50;;;;;;;2.38;1.67;;;;;;;5.11;81.66;93102.03;2069273;69;20265;-72
2022/12/26 00:08:17;;;;;;;3.35;1.98;;;;;;;5.10;81.94;93106.88;2067973;69;20172;-71
2022/12/26 00:10:43;;;;;;;2.30;1.75;;;;;;;5.10;81.29;93104.06;2070926;69;20175;-71
2022/12/26 00:13:08;;;;;;;2.72;1.80;;;;;;;4.99;81.24;93101.69;2070884;69;20187;-70
2022/12/26 00:15:34;;;;;;;3.60;2.15;;;;;;;4.96;81.23;93102.84;2071119;69;20577;-71
2022/12/26 00:18:00;;;;;;;4.32;1.50;;;;;;;5.04;81.38;93109.13;2070963;69;20563;-71
2022/12/26 00:20:25;;;;;;;2.33;1.98;;;;;;;5.06;81.51;93109.31;2070613;69;20158;-72
2022/12/26 00:22:51;;;;;;;3.17;2.22;;;;;;;4.91;81.11;93108.63;2070757;69;20164;-72
2022/12/26 00:25:17;;;;;;;2.80;2.22;;;;;;;4.95;81.09;93123.69;2071057;69;20159;-71
2022/12/26 00:27:42;;;;;;;5.30;2.33;;;;;;;4.95;80.51;93120.13;2068207;69;20145;-71
2022/12/26 00:30:08;;;;;;;4.68;2.30;;;;;;;5.02;80.36;93124.94;2064054;69;20160;-72
2022/12/26 00:32:34;;;;;;;2.88;2.10;;;;;;;5.01;80.63;93132.56;2066516;69;20152;-72
2022/12/26 00:35:00;;;;;;;4.38;2.30;;;;;;;5.01;80.88;93135.38;2070560;69;20512;-72
2022/12/26 00:37:25;;;;;;;2.83;1.95;;;;;;;5.02;80.74;93136.84;2070898;69;20144;-72
2022/12/26 00:39:51;;;;;;;4.90;2.20;;;;;;;4.91;80.76;93134.50;2070504;69;20629;-71
2022/12/26 00:42:16;;;;;;;3.22;2.40;;;;;;;4.90;80.51;93140.59;2070714;69;20151;-71
2022/12/26 00:44:42;;;;;;;4.88;2.22;;;;;;;5.01;79.79;93143.00;2070654;69;20270;-73
2022/12/26 00:47:07;;;;;;;3.10;1.73;;;;;;;4.91;80.21;93134.50;2071885;69;20180;-72
2022/12/26 00:49:33;;;;;;;2.63;1.80;;;;;;;4.91;80.24;93131.69;2069507;69;20144;-71
2022/12/26 00:51:59;;;;;;;3.30;1.73;;;;;;;4.78;81.26;93141.03;2071668;69;20175;-71
2022/12/26 00:54:25;;;;;;;3.65;1.90;;;;;;;4.85;80.40;93142.31;2067903;69;20231;-70
2022/12/26 00:56:51;;;;;;;3.70;2.22;;;;;;;4.66;81.59;93142.00;2071914;69;20229;-71
2022/12/26 00:59:17;;;;;;;3.95;2.08;;;;;;;4.66;82.07;93145.53;2072037;69;20156;-71
2022/12/26 01:01:43;;;;;;;5.72;2.00;;;;;;;4.76;81.43;93135.25;2067100;69;20562;-72
2022/12/26 01:04:09;;;;;;;2.30;1.60;;;;;;;4.58;82.31;93148.34;2070578;69;20143;-71
2022/12/26 01:06:34;;;;;;;3.70;1.63;;;;;;;4.69;81.20;93144.41;2068406;69;20257;-71
2022/12/26 01:09:00;;;;;;;2.53;1.50;;;;;;;4.75;80.88;93152.56;2068178;69;20298;-71
2022/12/26 01:11:44;;;;;;;3.13;1.95;;;;;;;4.73;80.82;93152.41;2068272;69;20275;-72
2022/12/26 01:14:17;;;;;;;2.40;1.80;;;;;;;4.73;81.59;93153.13;2071067;69;20243;-73
2022/12/26 01:16:44;;;;;;;3.45;1.83;;;;;;;4.72;81.31;93150.88;2071720;69;20486;-72
2022/12/26 01:19:11;;;;;;;2.67;1.63;;;;;;;4.66;81.92;93153.88;2070053;69;20543;-71
2022/12/26 01:21:37;;;;;;;2.63;1.95;;;;;;;4.57;82.29;93157.25;2069019;69;20168;-70
2022/12/26 01:24:04;;;;;;;3.60;2.03;;;;;;;4.47;81.91;93159.13;2071609;69;20253;-71
2022/12/26 01:26:30;;;;;;;3.70;2.20;;;;;;;4.41;81.50;93156.56;2072052;69;20133;-70
2022/12/26 01:28:56;;;;;;;2.38;1.80;;;;;;;4.49;80.47;93153.72;2072043;69;20136;-71
2022/12/26 01:31:22;;;;;;;4.25;2.15;;;;;;;4.42;81.22;93151.72;2071901;69;20515;-76
2022/12/26 01:33:48;;;;;;;2.60;1.90;;;;;;;4.39;82.61;93153.56;2067031;69;20184;-72
2022/12/26 01:36:15;;;;;;;3.15;1.58;;;;;;;4.53;81.28;93145.72;2070165;69;20160;-69
2022/12/26 01:38:40;;;;;;;2.60;1.50;;;;;;;4.57;81.61;93152.41;2069235;69;20156;-70
2022/12/26 01:41:21;;;;;;;2.30;1.50;;;;;;;4.57;81.08;93151.69;2071956;69;20162;-70
2022/12/26 01:43:57;;;;;;;3.35;1.75;;;;;;;4.64;81.04;93153.72;2072262;69;20184;-71
2022/12/26 01:46:39;;;;;;;4.40;2.17;;;;;;;4.55;81.77;93151.50;2072237;69;20187;-70
2022/12/26 01:49:34;;;;;;;3.10;1.83;;;;;;;4.55;81.76;93160.63;2072207;69;20144;-70
2022/12/26 01:52:05;;;;;;;2.33;1.60;;;;;;;4.53;81.87;93154.84;2070915;69;20140;-70
2022/12/26 01:54:36;;;;;;;2.92;1.70;;;;;;;4.49;82.24;93164.88;2071682;69;20602;-71
2022/12/26 01:57:11;;;;;;;2.38;1.73;;;;;;;4.25;82.48;93166.22;2071052;69;20191;-70
2022/12/26 01:59:39;;;;;;;2.55;2.00;;;;;;;4.39;81.99;93163.97;2068360;69;20157;-71
2022/12/26 02:02:05;;;;;;;2.95;1.60;;;;;;;4.55;82.11;93165.44;2068262;69;20234;-70
2022/12/26 02:07:23;;;;;;;2.17;1.70;;;;;;;4.44;81.55;93158.19;2068131;69;20164;-71
2022/12/26 02:09:49;;;;;;;2.33;1.67;;;;;;;4.52;81.29;93161.72;2068542;69;20249;-71
2022/12/26 02:12:20;;;;;;;2.65;1.67;;;;;;;4.48;81.78;93161.34;2069379;69;20156;-72
2022/12/26 02:14:49;;;;;;;3.13;1.67;;;;;;;4.48;81.60;93160.63;2070461;69;20152;-72
2022/12/26 02:17:15;;;;;;;2.88;1.77;;;;;;;4.47;82.07;93165.47;2070672;69;20160;-71
2022/12/26 02:20:00;;;;;;;2.22;1.70;;;;;;;4.54;81.02;93163.97;2071346;69;20211;-72
2022/12/26 02:22:44;;;;;;;2.97;1.73;;;;;;;4.51;81.16;93163.03;2071083;69;20254;-71
2022/12/26 02:25:41;;;;;;;2.50;1.80;;;;;;;4.49;80.76;93164.88;2070103;69;20182;-71
2022/12/26 02:28:29;;;;;;;2.33;1.90;;;;;;;4.56;80.34;93161.34;2068408;69;20192;-71
2022/12/26 02:31:02;;;;;;;3.03;1.80;;;;;;;4.69;79.84;93154.81;2070083;69;20241;-71
2022/12/26 02:33:53;;;;;;;5.47;1.70;;;;;;;4.44;80.05;93158.19;2068997;69;20149;-71
2022/12/26 02:36:44;;;;;;;1.90;1.50;;;;;;;4.49;80.79;93165.66;2071408;69;20136;-72
2022/12/26 02:39:51;;;;;;;3.00;1.85;;;;;;;4.45;80.31;93162.50;2070986;69;20625;-71
2022/12/26 02:42:20;;;;;;;2.33;1.73;;;;;;;4.43;81.08;93161.56;2071346;69;20218;-71
2022/12/26 02:47:40;;;;;;;3.05;1.42;;;;;;;4.51;80.64;93163.03;2071043;69;20136;-71
2022/12/26 03:13:32;;;;;;;2.53;1.48;;;;;;;4.06;80.43;93172.91;2071340;69;20156;-71
2022/12/26 03:18:54;;;;;;;2.38;1.58;;;;;;;4.21;81.29;93157.50;2069323;69;20145;-71
2022/12/26 03:21:26;;;;;;;4.20;1.33;;;;;;;4.25;80.67;93155.06;2069899;69;21032;-71
2022/12/26 03:23:55;;;;;;;1.73;1.50;;;;;;;4.17;81.39;93165.47;2067561;69;20156;-71
2022/12/26 03:26:39;;;;;;;3.78;1.52;;;;;;;4.17;81.07;93165.47;2070919;69;20239;-71
2022/12/26 03:32:00;;;;;;;3.03;1.60;;;;;;;3.65;82.67;93151.72;2070999;69;20148;-70
2022/12/26 03:34:27;;;;;;;3.13;1.60;;;;;;;4.03;82.95;93173.28;2068866;69;20195;-70
2022/12/26 03:37:30;;;;;;;1.77;1.40;;;;;;;4.20;81.83;93178.31;2067841;69;20153;-71
2022/12/26 04:19:25;;;;;;;2.30;1.60;;;;;;;4.05;81.28;93167.91;2070716;69;20604;-71
2022/12/26 04:44:44;;;;;;;1.75;1.42;;;;;;;3.96;80.49;93174.78;2068946;69;20262;-71
2022/12/26 04:47:11;;;;;;;3.35;1.67;;;;;;;3.98;80.21;93172.16;2064139;69;20167;-72
2022/12/26 04:52:53;;;;;;;2.58;1.90;;;;;;;3.92;80.76;93176.44;2067357;69;20160;-72
2022/12/26 04:55:17;;;;;;;5.68;3.30;;;;;;;3.84;81.18;93176.44;2067154;69;20175;-70
2022/12/26 04:57:43;;;;;;;5.63;2.97;;;;;;;3.86;80.90;93165.50;2064323;69;20156;-70
2022/12/26 05:00:10;;;;;;;2.53;1.90;;;;;;;3.85;80.74;93172.38;2066525;69;20160;-71
2022/12/26 05:10:58;;;;;;;2.33;1.70;;;;;;;3.72;80.76;93172.53;2055036;69;21008;-71
2022/12/26 05:13:24;;;;;;;3.85;1.90;;;;;;;3.87;80.60;93172.53;2067723;69;20136;-73
2022/12/26 05:29:31;;;;;;;2.78;2.00;;;;;;;3.60;79.97;93199.97;2069219;69;20158;-71
2022/12/26 05:31:58;;;;;;;9.45;5.28;;;;;;;3.59;79.61;93192.94;2071542;69;20221;-71
2022/12/26 05:34:23;;;;;;;8.57;4.60;;;;;;;3.57;79.50;93189.94;2070378;69;20550;-71
2022/12/26 05:36:52;;;;;;;2.55;1.70;;;;;;;3.54;81.00;93202.19;2068105;69;20151;-73
2022/12/26 05:39:18;;;;;;;4.45;3.53;;;;;;;3.49;80.93;93215.00;2071669;69;20195;-72
2022/12/26 05:41:43;;;;;;;4.60;3.10;;;;;;;3.35;80.96;93215.69;2071546;69;20223;-72
2022/12/26 05:44:09;;;;;;;4.50;3.30;;;;;;;3.55;79.92;93210.00;2071512;69;20564;-73
2022/12/26 05:46:35;;;;;;;4.03;3.28;;;;;;;3.56;79.52;93205.16;2071591;69;20167;-71
2022/12/26 05:49:01;;;;;;;7.75;3.00;;;;;;;3.37;80.21;93216.63;2071636;69;20602;-73
2022/12/26 05:51:27;;;;;;;4.65;3.30;;;;;;;3.48;79.15;93223.88;2069775;69;20240;-71
2022/12/26 05:53:53;;;;;;;8.27;2.78;;;;;;;3.45;79.21;93225.00;2068127;69;20533;-72
2022/12/26 05:56:19;;;;;;;2.85;2.00;;;;;;;3.42;79.51;93220.53;2068110;69;20237;-73
2022/12/26 05:58:46;;;;;;;9.35;5.63;;;;;;;3.22;80.75;93217.31;2071624;69;20279;-72
2022/12/26 06:01:18;;;;;;;6.22;4.57;;;;;;;3.24;79.52;93213.97;2070504;69;20167;-70
2022/12/26 06:03:47;;;;;;;6.03;3.88;;;;;;;3.29;79.62;93208.22;2068986;69;20164;-71
2022/12/26 06:06:13;;;;;;;6.95;2.65;;;;;;;3.24;81.46;93200.06;2067406;69;20250;-71
2022/12/26 06:08:40;;;;;;;2.65;1.67;;;;;;;3.36;82.20;93197.69;2071224;69;20642;-71
2022/12/26 06:11:07;;;;;;;3.20;1.70;;;;;;;3.48;81.13;93204.41;2067932;69;20298;-71
2022/12/26 06:13:35;;;;;;;2.72;1.73;;;;;;;3.38;81.34;93206.22;2071558;69;20151;-73
2022/12/26 06:16:10;;;;;;;2.50;1.52;;;;;;;3.44;81.94;93204.03;2071474;69;20159;-71
2022/12/26 06:18:35;;;;;;;2.80;1.85;;;;;;;3.52;80.99;93202.00;2071493;69;20235;-73
2022/12/26 06:21:06;;;;;;;2.08;1.63;;;;;;;3.51;81.27;93195.69;2068967;69;20186;-71
2022/12/26 06:23:33;;;;;;;3.67;1.90;;;;;;;3.53;80.81;93197.94;2068139;69;20196;-71
2022/12/26 06:25:58;;;;;;;3.90;2.10;;;;;;;3.46;81.04;93204.22;2067762;69;20227;-70
2022/12/26 06:28:24;;;;;;;3.40;1.85;;;;;;;3.51;80.64;93220.00;2071214;69;20509;-71
2022/12/26 06:30:52;;;;;;;2.92;2.10;;;;;;;3.49;80.76;93215.00;2071406;69;20560;-73
2022/12/26 06:33:17;;;;;;;4.88;2.95;;;;;;;3.66;80.12;93211.69;2071692;69;20575;-73
2022/12/26 06:35:43;;;;;;;20.20;9.45;;;;;;;3.56;80.28;93203.13;2072887;69;20151;-70
2022/12/26 06:38:09;;;;;;;18.40;8.50;;;;;;;3.65;79.71;93199.06;2071527;69;20293;-71
2022/12/26 06:40:39;;;;;;;9.30;4.97;;;;;;;3.72;79.47;93203.91;2073424;69;20247;-71
2022/12/26 06:43:05;;;;;;;3.25;2.20;;;;;;;3.68;79.98;93217.44;2070687;69;20221;-71
2022/12/26 06:45:31;;;;;;;5.25;1.95;;;;;;;3.59;80.42;93215.22;2071336;69;20148;-72
2022/12/26 06:47:58;;;;;;;5.85;1.70;;;;;;;3.61;80.01;93214.63;2071429;69;20152;-71
2022/12/26 06:50:24;;;;;;;4.65;1.65;;;;;;;3.62;80.18;93213.34;2068144;69;20483;-73
2022/12/26 06:52:50;;;;;;;5.10;1.80;;;;;;;3.66;79.95;93208.16;2071425;69;20188;-71
2022/12/26 06:55:15;;;;;;;2.63;2.00;;;;;;;3.67;80.18;93210.41;2071343;69;20149;-71
2022/12/26 06:57:41;;;;;;;2.95;1.90;;;;;;;3.63;80.26;93209.28;2071584;69;20154;-72
2022/12/26 07:00:09;;;;;;;2.85;2.08;;;;;;;3.58;80.76;93207.41;2068996;69;20180;-70
2022/12/26 07:02:35;;;;;;;2.47;1.63;;;;;;;3.59;80.88;93197.75;2064629;69;20210;-71
2022/12/26 07:05:01;;;;;;;4.35;1.80;;;;;;;3.71;80.51;93210.78;2068572;69;20176;-71
2022/12/26 07:07:26;;;;;;;3.45;2.03;;;;;;;3.52;81.27;93202.75;2071653;69;20235;-71
2022/12/26 07:09:52;;;;;;;4.15;2.17;;;;;;;3.59;81.37;93215.22;2071359;69;20163;-70
2022/12/26 07:12:20;;;;;;;5.40;3.10;;;;;;;3.56;80.55;93202.38;2071524;69;20152;-71
2022/12/26 07:14:46;;;;;;;6.55;3.42;;;;;;;3.70;79.71;93209.28;2071414;69;20132;-71
2022/12/26 07:17:12;;;;;;;4.38;2.45;;;;;;;3.73;79.89;93213.75;2065062;69;20248;-73
2022/12/26 07:19:38;;;;;;;4.50;2.35;;;;;;;3.65;79.65;93212.97;2070515;69;20136;-70
2022/12/26 07:22:03;;;;;;;3.13;2.00;;;;;;;3.65;79.57;93220.59;2070697;69;20200;-70
2022/12/26 07:24:30;;;;;;;4.13;2.28;;;;;;;3.56;81.32;93210.72;2070391;69;20171;-72
2022/12/26 07:26:56;;;;;;;14.63;6.80;;;;;;;3.16;81.17;93205.63;2071366;69;20545;-70
2022/12/26 07:29:23;;;;;;;10.50;5.80;;;;;;;3.42;80.37;93215.72;2067902;69;20174;-71
2022/12/26 07:31:48;;;;;;;11.23;6.53;;;;;;;3.46;80.15;93212.56;2071361;69;20140;-71
2022/12/26 07:34:14;;;;;;;11.18;5.95;;;;;;;3.42;80.27;93218.50;2071030;69;20911;-72
2022/12/26 07:36:40;;;;;;;9.65;5.00;;;;;;;3.34;80.95;93214.19;2069249;69;20604;-71
2022/12/26 07:39:07;;;;;;;11.48;5.32;;;;;;;3.29;81.04;93213.81;2067797;69;20163;-71
2022/12/26 07:44:17;;;;;;;14.05;7.30;;;;;;;3.24;80.66;93231.41;2071392;69;20186;-72
2022/12/26 07:46:45;;;;;;;20.05;10.38;;;;;;;3.17;81.16;93231.41;2071248;69;20148;-73
2022/12/26 07:49:11;;;;;;;18.13;9.98;;;;;;;3.40;80.97;93228.69;2071269;69;20236;-71
2022/12/26 07:51:37;;;;;;;27.33;14.85;;;;;;;3.45;80.84;93227.78;2068229;69;20172;-72
2022/12/26 07:54:02;;;;;;;19.42;9.90;;;;;;;3.50;81.22;93221.31;2070153;69;20249;-71
2022/12/26 07:56:30;;;;;;;8.32;3.90;;;;;;;3.70;80.38;93217.63;2067988;69;20155;-73
2022/12/26 07:58:58;;;;;;;4.80;3.22;;;;;;;3.55;80.98;93217.59;2071233;69;20143;-71
2022/12/26 08:01:23;;;;;;;5.63;2.90;;;;;;;3.68;80.91;93220.25;2068349;69;20196;-71
2022/12/26 08:03:49;;;;;;;4.35;3.03;;;;;;;4.01;79.82;93214.91;2070529;69;20631;-73
2022/12/26 08:06:17;;;;;;;4.90;2.58;;;;;;;4.04;80.26;93222.16;2069578;69;20282;-71
2022/12/26 08:08:43;;;;;;;3.95;2.70;;;;;;;4.11;80.08;93221.41;2067296;69;20156;-72
2022/12/26 08:11:14;;;;;;;3.53;2.58;;;;;;;4.11;79.58;93213.03;2070034;69;20144;-71
2022/12/26 08:13:39;;;;;;;10.57;6.25;;;;;;;3.88;79.63;93223.41;2070960;69;20596;-72
2022/12/26 08:16:07;;;;;;;9.82;6.32;;;;;;;4.04;79.68;93227.72;2068949;69;20618;-71
2022/12/26 08:18:33;;;;;;;9.38;5.80;;;;;;;4.09;79.60;93232.38;2068574;69;20192;-70
2022/12/26 08:21:00;;;;;;;7.72;5.30;;;;;;;4.07;79.53;93232.16;2070436;69;20239;-72
2022/12/26 08:23:27;;;;;;;7.63;4.70;;;;;;;4.17;79.26;93235.91;2070971;69;20159;-71
2022/12/26 08:25:52;;;;;;;3.85;2.40;;;;;;;4.32;79.34;93235.91;2071211;69;20165;-71
2022/12/26 08:28:18;;;;;;;3.25;2.55;;;;;;;4.43;78.59;93239.63;2070160;69;20225;-71
2022/12/26 08:30:45;;;;;;;16.02;8.43;;;;;;;4.23;78.92;93244.81;2069249;69;20192;-73
2022/12/26 08:33:11;;;;;;;7.88;5.10;;;;;;;3.87;79.51;93247.75;2070808;69;20253;-71
2022/12/26 08:35:38;;;;;;;10.68;6.32;;;;;;;3.98;79.53;93249.44;2069252;69;20246;-71
2022/12/26 08:38:04;;;;;;;9.35;5.40;;;;;;;3.92;79.66;93248.88;2067917;69;20143;-72
2022/12/26 08:40:31;;;;;;;8.27;5.78;;;;;;;4.18;79.37;93256.16;2070937;69;20243;-71
2022/12/26 08:42:57;;;;;;;9.13;5.72;;;;;;;4.21;79.25;93255.03;2071322;69;20144;-71
2022/12/26 08:45:22;;;;;;;8.20;5.35;;;;;;;4.21;78.66;93247.41;2070091;69;20151;-71
2022/12/26 08:47:49;;;;;;;19.73;11.38;;;;;;;4.19;79.61;93249.28;2070083;69;20196;-73
2022/12/26 08:50:15;;;;;;;18.25;11.70;;;;;;;4.29;78.95;93253.00;2071150;69;20141;-73
2022/12/26 08:52:41;;;;;;;15.90;8.65;;;;;;;4.24;79.23;93260.25;2071536;69;20163;-71
2022/12/26 08:55:07;;;;;;;13.13;9.18;;;;;;;4.10;79.71;93253.38;2068583;69;20160;-71
2022/12/26 08:57:33;;;;;;;30.10;20.30;;;;;;;4.43;80.11;93257.09;2070707;69;20151;-72
2022/12/26 08:59:59;;;;;;;48.05;27.45;;;;;;;4.81;80.80;93251.50;2071253;69;20144;-72
2022/12/26 09:02:24;;;;;;;32.95;20.60;;;;;;;5.27;79.48;93262.56;2071990;69;20148;-71
2022/12/26 09:04:51;;;;;;;29.92;19.52;;;;;;;5.44;80.04;93250.75;2072611;69;20144;-71
2022/12/26 09:07:17;;;;;;;25.67;15.90;;;;;;;5.75;79.62;93250.63;2072139;69;20217;-72
2022/12/26 09:09:43;;;;;;;21.63;11.98;;;;;;;6.06;77.36;93246.38;2070720;69;20155;-72
2022/12/26 09:12:09;;;;;;;15.38;8.38;;;;;;;6.18;76.91;93248.72;2069687;69;20175;-72
2022/12/26 09:14:35;;;;;;;15.77;8.98;;;;;;;6.22;73.87;93238.63;2069439;69;20150;-72
2022/12/26 09:17:00;;;;;;;19.52;9.88;;;;;;;6.62;73.63;93244.09;2070639;69;20159;-71
2022/12/26 09:19:31;;;;;;;33.60;15.98;;;;;;;6.82;73.20;93249.91;2068721;69;20180;-71
2022/12/26 09:24:42;;;;;;;11.35;6.35;;;;;;;7.07;73.74;93244.28;2071165;69;20258;-72
2022/12/26 09:27:08;;;;;;;10.57;5.93;;;;;;;7.38;73.23;93239.84;2070647;69;20295;-72
2022/12/26 09:29:37;;;;;;;11.35;6.32;;;;;;;7.41;70.56;93246.31;2070805;69;20164;-73
2022/12/26 09:32:03;;;;;;;9.27;6.60;;;;;;;7.66;69.95;93245.50;2066114;69;20191;-72
2022/12/26 09:34:29;;;;;;;15.10;9.77;;;;;;;7.51;70.07;93243.59;2068301;69;20145;-72
2022/12/26 09:36:54;;;;;;;9.00;5.60;;;;;;;7.35;70.48;93238.19;2069052;69;20692;-73
2022/12/26 09:39:20;;;;;;;7.43;5.20;;;;;;;7.97;69.69;93237.41;2065765;69;20498;-73
2022/12/26 09:42:03;;;;;;;6.25;4.65;;;;;;;8.62;70.11;93236.88;2068153;69;20153;-73
2022/12/26 09:44:41;;;;;;;12.63;6.28;;;;;;;8.73;68.75;93230.69;2069706;69;20207;-72
2022/12/26 09:47:24;;;;;;;9.98;6.38;;;;;;;8.54;66.17;93227.84;2070251;69;20152;-73
2022/12/26 09:49:50;;;;;;;11.18;7.00;;;;;;;9.02;66.02;93224.41;2069026;69;20148;-73
2022/12/26 09:52:21;;;;;;;13.77;8.65;;;;;;;9.24;65.01;93222.53;2069600;69;20152;-73
2022/12/26 09:54:56;;;;;;;14.13;7.70;;;;;;;8.73;64.61;93230.69;2070378;69;20531;-73
2022/12/26 09:57:46;;;;;;;8.00;5.07;;;;;;;8.70;65.84;93229.06;2066815;69;20140;-72
2022/12/26 10:00:27;;;;;;;9.90;4.53;;;;;;;8.30;65.81;93233.03;2070373;69;20595;-73
2022/12/26 10:02:56;;;;;;;10.25;6.13;;;;;;;8.48;66.56;93241.41;2069841;69;20635;-72
2022/12/26 10:05:26;;;;;;;13.65;7.97;;;;;;;8.73;66.45;93225.09;2071617;69;20236;-72
2022/12/26 10:08:18;;;;;;;11.05;7.28;;;;;;;8.93;64.71;93237.09;2070059;69;20266;-72
2022/12/26 10:11:01;;;;;;;16.08;9.02;;;;;;;9.40;65.12;93246.22;2063869;69;20217;-72
2022/12/26 10:13:46;;;;;;;20.30;10.52;;;;;;;9.42;63.69;93235.09;2070875;69;20159;-73
2022/12/26 10:16:37;;;;;;;22.20;12.30;;;;;;;9.67;63.26;93226.38;2070443;69;20172;-72
2022/12/26 10:19:33;;;;;;;12.85;8.13;;;;;;;9.20;63.32;93239.81;2070439;69;20233;-73
2022/12/26 10:22:22;;;;;;;15.73;9.13;;;;;;;10.09;61.23;93222.31;2068610;69;20156;-73
2022/12/26 10:24:49;;;;;;;12.63;7.72;;;;;;;10.39;60.93;93216.03;2068343;69;20236;-73
2022/12/26 10:27:17;;;;;;;16.55;10.30;;;;;;;11.22;60.67;93213.84;2069392;69;20147;-73
2022/12/26 10:30:24;;;;;;;17.00;9.75;;;;;;;12.26;58.29;93215.63;2070663;69;20179;-74
2022/12/26 10:33:02;;;;;;;11.63;7.65;;;;;;;11.68;56.60;93207.69;2067814;69;20184;-72
2022/12/26 10:35:43;;;;;;;11.95;7.90;;;;;;;11.31;56.30;93198.94;2068069;69;20148;-75
2022/12/26 10:38:18;;;;;;;10.95;7.85;;;;;;;11.23;57.16;93193.53;2069507;69;20229;-73
2022/12/26 10:40:49;;;;;;;12.02;7.65;;;;;;;11.47;56.29;93188.72;2069322;69;20155;-73
2022/12/26 10:43:33;;;;;;;14.40;7.80;;;;;;;12.49;55.54;93200.81;2070769;69;20260;-73
2022/12/26 10:46:25;;;;;;;13.35;8.50;;;;;;;13.93;51.73;93202.97;2070840;69;20162;-73
2022/12/26 10:48:51;;;;;;;20.88;14.05;;;;;;;13.83;51.58;93210.13;2052911;69;20142;-72
2022/12/26 10:51:16;;;;;;;16.20;11.70;;;;;;;14.20;49.81;93208.00;2053195;69;20174;-72
2022/12/26 10:53:50;;;;;;;14.55;8.00;;;;;;;14.32;50.02;93212.84;2053145;69;20180;-73
2022/12/26 10:56:16;;;;;;;10.60;7.13;;;;;;;15.17;48.15;93208.94;2052601;69;20149;-73
2022/12/26 10:58:43;;;;;;;7.20;5.50;;;;;;;16.46;47.36;93206.78;2053754;69;20153;-76
2022/12/26 11:01:27;;;;;;;12.50;8.65;;;;;;;17.13;45.06;93203.44;2053550;69;20415;-74
2022/12/26 11:03:58;;;;;;;12.98;8.50;;;;;;;18.07;45.26;93208.19;2053501;69;20177;-77
2022/12/26 11:06:29;;;;;;;10.25;8.20;;;;;;;17.13;43.17;93192.06;2050888;70;20144;-75
2022/12/26 11:08:56;;;;;;;11.85;8.75;;;;;;;14.88;46.54;93192.53;2050741;70;20142;-74
2022/12/26 11:11:44;;;;;;;12.00;9.65;;;;;;;12.86;48.59;93184.00;2052211;70;20249;-73
2022/12/26 11:14:28;;;;;;;14.10;11.07;;;;;;;13.22;49.60;93187.56;2053862;70;20975;-72
2022/12/26 11:16:57;;;;;;;18.02;12.68;;;;;;;11.88;52.55;93194.19;2053892;70;20154;-75
2022/12/26 11:19:45;;;;;;;14.02;10.48;;;;;;;12.59;51.66;93192.22;2053548;69;20193;-73
2022/12/26 11:22:22;;;;;;;12.05;8.65;;;;;;;12.09;52.80;93176.44;2053793;69;20181;-74
2022/12/26 11:25:17;;;;;;;16.17;8.70;;;;;;;12.55;52.47;93186.34;2056453;69;20151;-73
2022/12/26 11:27:50;;;;;;;14.43;8.60;;;;;;;12.51;52.94;93194.56;2071052;69;20178;-74
2022/12/26 11:30:30;;;;;;;12.93;9.15;;;;;;;12.70;52.21;93180.22;2071105;69;20502;-75
2022/12/26 11:33:01;;;;;;;13.85;9.00;;;;;;;12.71;51.74;93176.75;2071371;69;20235;-74
2022/12/26 11:35:33;;;;;;;10.75;7.03;;;;;;;12.55;53.28;93175.03;2071406;69;20217;-75
2022/12/26 11:38:00;;;;;;;10.07;6.47;;;;;;;12.50;53.20;93176.13;2066737;69;20583;-74
2022/12/26 11:40:33;;;;;;;9.35;6.03;;;;;;;12.47;52.89;93166.81;2070008;69;20167;-73
2022/12/26 11:43:01;;;;;;;8.30;6.20;;;;;;;12.29;53.74;93169.25;2070774;69;20152;-74
2022/12/26 11:45:29;;;;;;;8.05;6.30;;;;;;;12.08;54.49;93158.78;2071432;69;20273;-75
2022/12/26 11:47:59;;;;;;;8.07;5.95;;;;;;;12.44;54.51;93165.22;2065053;69;20156;-74
2022/12/26 11:50:29;;;;;;;11.23;7.35;;;;;;;11.91;55.36;93148.59;2070264;69;20167;-73
2022/12/26 11:52:55;;;;;;;18.95;13.00;;;;;;;10.27;59.50;93155.38;2071008;69;20155;-74
2022/12/26 11:55:29;;;;;;;17.55;12.65;;;;;;;10.35;59.77;93148.19;2071288;69;20164;-73
2022/12/26 11:57:57;;;;;;;18.42;13.40;;;;;;;10.61;59.30;93146.44;2070993;69;20274;-76
2022/12/26 12:00:24;;;;;;;24.50;13.32;;;;;;;10.81;58.26;93135.81;2070801;69;20258;-75
2022/12/26 12:02:50;;;;;;;18.80;12.18;;;;;;;10.95;57.88;93130.41;2069548;69;20254;-75
2022/12/26 12:05:27;;;;;;;16.58;11.02;;;;;;;10.68;59.27;93120.19;2066003;69;20599;-74
2022/12/26 12:07:59;;;;;;;39.95;24.42;;;;;;;9.52;61.37;93128.28;2069279;69;20165;-75
2022/12/26 12:10:57;;;;;;;28.38;17.70;;;;;;;9.79;59.79;93142.16;2070365;69;20148;-75
2022/12/26 12:13:22;;;;;;;21.33;15.23;;;;;;;9.82;60.59;93132.53;2071647;69;20204;-75
2022/12/26 12:16:10;;;;;;;18.65;12.40;;;;;;;9.90;60.82;93130.28;2072992;69;20198;-74
2022/12/26 12:18:54;;;;;;;19.42;12.75;;;;;;;10.09;60.13;93130.22;2069865;69;20586;-75
2022/12/26 12:21:26;;;;;;;17.00;11.30;;;;;;;10.16;60.60;93128.56;2070003;69;20192;-76
2022/12/26 12:24:16;;;;;;;29.10;18.67;;;;;;;9.73;61.70;93131.22;2070902;69;20175;-75
2022/12/26 12:26:54;;;;;;;25.70;16.63;;;;;;;9.95;61.18;93134.88;2068016;69;20145;-75
2022/12/26 12:29:27;;;;;;;28.67;19.45;;;;;;;10.14;60.51;93134.06;2068177;69;20572;-75
2022/12/26 12:32:14;;;;;;;27.80;18.13;;;;;;;9.84;61.73;93119.34;2071156;69;20694;-75
2022/12/26 12:34:58;;;;;;;29.42;19.38;;;;;;;9.97;61.80;93115.31;2070346;69;20172;-75
2022/12/26 12:37:59;;;;;;;35.78;20.83;;;;;;;10.03;62.31;93126.97;2070384;69;20286;-75
2022/12/26 12:40:45;;;;;;;38.08;21.23;;;;;;;9.73;62.03;93117.16;2070148;69;20251;-74
2022/12/26 12:43:21;;;;;;;30.90;18.63;;;;;;;9.88;62.62;93104.81;2073613;69;20311;-74
2022/12/26 12:46:07;;;;;;;27.20;17.48;;;;;;;9.51;62.93;93109.97;2068049;69;20164;-75
2022/12/26 12:48:55;;;;;;;32.38;20.30;;;;;;;9.57;63.85;93116.00;2068185;69;20476;-75
2022/12/26 12:51:49;;;;;;;35.78;23.48;;;;;;;9.42;64.71;93114.25;2070933;69;20241;-72
2022/12/26 12:54:43;;;;;;;39.67;24.08;;;;;;;9.32;64.28;93119.16;2070027;69;20151;-73
2022/12/26 12:57:33;;;;;;;53.95;33.55;;;;;;;8.71;67.46;93109.84;2070862;69;20140;-73
2022/12/26 13:00:16;;;;;;;51.95;34.63;;;;;;;9.43;65.88;93087.63;2070948;69;20595;-71
2022/12/26 13:03:00;;;;;;;43.90;28.08;;;;;;;9.53;65.06;93099.63;2066693;69;20159;-72
2022/12/26 13:05:44;;;;;;;48.53;29.92;;;;;;;9.52;65.47;93100.19;2069721;69;20140;-72
2022/12/26 13:08:14;;;;;;;64.07;39.70;;;;;;;9.45;65.77;93101.84;2068470;69;20243;-72
2022/12/26 13:10:49;;;;;;;50.50;32.17;;;;;;;9.05;67.01;93119.31;2070624;69;20156;-72
2022/12/26 13:13:37;;;;;;;28.42;18.73;;;;;;;9.00;67.27;93115.47;2067657;69;20180;-71
2022/12/26 13:16:11;;;;;;;29.10;19.55;;;;;;;9.24;66.60;93107.34;2071051;69;20158;-71
2022/12/26 13:18:44;;;;;;;40.70;27.33;;;;;;;9.28;67.02;93116.78;2070966;69;20495;-72
2022/12/26 13:21:11;;;;;;;;;;;;;;;9.04;67.30;93101.75;2071292;69;20175;-74
2022/12/26 13:26:47;;;;;;;28.65;19.77;;;;;;;9.41;66.79;93059.41;2068141;69;20180;-70
2022/12/26 13:29:30;;;;;;;33.47;22.65;;;;;;;9.60;66.49;93058.59;2070310;69;20159;-71
2022/12/26 13:32:01;;;;;;;30.42;19.27;;;;;;;9.30;67.41;93072.00;2071195;69;20141;-71
2022/12/26 13:34:27;;;;;;;29.40;17.13;;;;;;;9.30;67.63;93074.81;2069888;69;20203;-70
2022/12/26 13:36:58;;;;;;;28.42;16.88;;;;;;;9.29;67.13;93089.44;2067690;69;20594;-71
2022/12/26 13:39:26;;;;;;;14.27;8.02;;;;;;;8.18;70.82;93088.31;2068683;69;20140;-71
2022/12/26 13:44:41;;;;;;;13.85;9.13;;;;;;;9.32;67.33;93060.16;2071104;69;20567;-72
2022/12/26 13:47:30;;;;;;;17.27;12.23;;;;;;;9.51;66.05;93065.72;2070448;69;20235;-71
2022/12/26 13:49:56;;;;;;;17.33;11.48;;;;;;;8.46;69.43;93070.09;2069939;69;20224;-70
2022/12/26 13:52:21;;;;;;;18.58;11.40;;;;;;;8.67;69.50;93075.88;2070543;69;20218;-71
2022/12/26 13:54:47;;;;;;;18.45;11.77;;;;;;;8.79;69.28;93064.78;2071182;69;20151;-71
2022/12/26 13:57:33;;;;;;;17.75;11.32;;;;;;;8.95;68.48;93048.38;2067896;69;20208;-71
2022/12/26 14:00:29;;;;;;;15.73;9.48;;;;;;;9.11;67.47;93043.91;2070681;69;20199;-71
2022/12/26 14:03:23;;;;;;;18.50;9.25;;;;;;;9.14;66.80;93046.28;2069999;69;20156;-72
2022/12/26 14:06:45;;;;;;;17.70;11.10;;;;;;;9.13;67.12;93039.19;2069054;69;20471;-71
2022/12/26 14:09:49;;;;;;;18.80;10.52;;;;;;;9.00;67.44;93036.84;2053147;69;20273;-71